Time,TemperatureF,DewpointF,PressureIn,WindDirection,WindDirectionDegrees,WindSpeedMPH,WindSpeedGustMPH,Humidity,HourlyPrecipIn,Conditions,Clouds,dailyrainin,SolarRadiationWatts/m^2,SoftwareType,DateUTC
2013-03-06 00:02:00,58.0,54.0,29.89,SSW,192,8.0,20.0,87,0.02,,,0.02,0.000000,,2013-03-06 05:02:00,
2013-03-06 00:12:00,58.0,54.0,29.89,SSW,192,8.0,20.0,87,0.02,,,0.02,0.000000,,2013-03-06 05:12:00,
2013-03-06 00:32:00,58.0,55.0,29.84,SW,219,15.0,33.0,89,0.04,,,0.06,0.000000,,2013-03-06 05:32:00,
2013-03-06 00:42:00,58.0,55.0,29.84,SW,219,15.0,33.0,89,0.04,,,0.06,0.000000,,2013-03-06 05:42:00,
2013-03-06 00:52:00,58.0,55.0,29.84,SW,219,15.0,33.0,89,0.04,,,0.06,0.000000,,2013-03-06 05:52:00,
2013-03-06 01:02:00,58.0,55.0,29.84,SW,219,15.0,33.0,89,0.04,,,0.06,0.000000,,2013-03-06 06:02:00,
2013-03-06 01:11:00,58.0,55.0,29.84,SW,219,15.0,33.0,89,0.04,,,0.06,0.000000,,2013-03-06 06:11:00,
2013-03-06 01:32:00,61.0,56.0,29.81,WSW,240,11.0,27.0,83,0.00,,,0.06,0.000000,,2013-03-06 06:32:00,
2013-03-06 01:42:00,61.0,56.0,29.81,WSW,240,11.0,27.0,83,0.00,,,0.06,0.000000,,2013-03-06 06:42:00,
2013-03-06 01:52:00,61.0,56.0,29.81,WSW,240,11.0,27.0,83,0.00,,,0.06,0.000000,,2013-03-06 06:52:00,
2013-03-06 02:01:00,61.0,56.0,29.81,WSW,240,11.0,27.0,83,0.00,,,0.06,0.000000,,2013-03-06 07:01:00,
2013-03-06 02:11:00,61.0,56.0,29.81,WSW,240,11.0,27.0,83,0.00,,,0.06,0.000000,,2013-03-06 07:11:00,
2013-03-06 02:32:00,59.0,53.0,29.78,WSW,257,12.0,27.0,81,0.00,,,0.06,0.000000,,2013-03-06 07:32:00,
2013-03-06 02:42:00,59.0,53.0,29.78,WSW,257,12.0,27.0,81,0.00,,,0.06,0.000000,,2013-03-06 07:42:00,
2013-03-06 02:52:00,59.0,53.0,29.78,WSW,257,12.0,27.0,81,0.00,,,0.06,0.000000,,2013-03-06 07:52:00,
2013-03-06 03:01:00,59.0,53.0,29.78,WSW,257,12.0,27.0,81,0.00,,,0.06,0.000000,,2013-03-06 08:01:00,
2013-03-06 03:11:00,59.0,53.0,29.78,WSW,257,12.0,27.0,81,0.00,,,0.06,0.000000,,2013-03-06 08:11:00,
2013-03-06 03:42:00,56.0,47.0,29.75,West,262,15.0,34.0,73,0.00,,,0.06,0.000000,,2013-03-06 08:42:00,
2013-03-06 03:52:00,56.0,47.0,29.75,West,262,15.0,34.0,73,0.00,,,0.06,0.000000,,2013-03-06 08:52:00,
2013-03-06 04:02:00,56.0,47.0,29.75,West,262,15.0,34.0,73,0.00,,,0.06,0.000000,,2013-03-06 09:02:00,
2013-03-06 04:12:00,56.0,47.0,29.75,West,262,15.0,34.0,73,0.00,,,0.06,0.000000,,2013-03-06 09:12:00,
2013-03-06 04:32:00,54.0,44.0,29.78,WNW,282,12.0,33.0,69,0.00,,,0.06,0.000000,,2013-03-06 09:32:00,
2013-03-06 04:42:00,54.0,44.0,29.78,WNW,282,12.0,33.0,69,0.00,,,0.06,0.000000,,2013-03-06 09:42:00,
2013-03-06 04:52:00,54.0,44.0,29.78,WNW,282,12.0,33.0,69,0.00,,,0.06,0.000000,,2013-03-06 09:52:00,
2013-03-06 05:02:00,54.0,44.0,29.78,WNW,282,12.0,33.0,69,0.00,,,0.06,0.000000,,2013-03-06 10:02:00,
2013-03-06 05:11:00,54.0,44.0,29.78,WNW,282,12.0,33.0,69,0.00,,,0.06,0.000000,,2013-03-06 10:11:00,
2013-03-06 05:42:00,50.0,40.0,29.79,WNW,282,10.0,34.0,68,0.00,,,0.06,0.000000,,2013-03-06 10:42:00,
2013-03-06 05:52:00,50.0,40.0,29.79,WNW,282,10.0,34.0,68,0.00,,,0.06,0.000000,,2013-03-06 10:52:00,
2013-03-06 06:02:00,50.0,40.0,29.79,WNW,282,10.0,34.0,68,0.00,,,0.06,0.000000,,2013-03-06 11:02:00,
2013-03-06 06:11:00,50.0,40.0,29.79,WNW,282,10.0,34.0,68,0.00,,,0.06,0.000000,,2013-03-06 11:11:00,
2013-03-06 06:32:00,45.0,35.0,29.83,WNW,292,12.0,47.0,68,0.00,,,0.06,0.000000,,2013-03-06 11:32:00,
2013-03-06 06:43:00,45.0,35.0,29.83,WNW,292,12.0,47.0,68,0.00,,,0.06,0.000000,,2013-03-06 11:43:00,
2013-03-06 06:52:00,45.0,35.0,29.83,WNW,292,12.0,47.0,68,0.00,,,0.06,0.000000,,2013-03-06 11:52:00,
2013-03-06 07:02:00,45.0,35.0,29.83,WNW,292,12.0,47.0,68,0.00,,,0.06,0.000000,,2013-03-06 12:02:00,
2013-03-06 07:12:00,45.0,35.0,29.83,WNW,292,12.0,47.0,68,0.00,,,0.06,0.000000,,2013-03-06 12:12:00,
2013-03-06 07:33:00,45.0,33.0,29.84,WNW,297,15.0,35.0,63,0.00,,,0.06,11.000000,,2013-03-06 12:33:00,
2013-03-06 07:43:00,45.0,33.0,29.84,WNW,297,15.0,35.0,63,0.00,,,0.06,11.000000,,2013-03-06 12:43:00,
2013-03-06 07:53:00,45.0,33.0,29.84,WNW,297,15.0,35.0,63,0.00,,,0.06,11.000000,,2013-03-06 12:53:00,
2013-03-06 08:02:00,45.0,33.0,29.84,WNW,297,15.0,35.0,63,0.00,,,0.06,11.000000,,2013-03-06 13:02:00,
2013-03-06 08:12:00,45.0,33.0,29.84,WNW,297,15.0,35.0,63,0.00,,,0.06,11.000000,,2013-03-06 13:12:00,
2013-03-06 08:42:00,45.0,28.0,29.87,WNW,299,18.0,37.0,52,0.00,,,0.06,101.000000,,2013-03-06 13:42:00,
2013-03-06 08:52:00,45.0,28.0,29.87,WNW,299,18.0,37.0,52,0.00,,,0.06,101.000000,,2013-03-06 13:52:00,
2013-03-06 09:02:00,45.0,28.0,29.87,WNW,299,18.0,37.0,52,0.00,,,0.06,101.000000,,2013-03-06 14:02:00,
2013-03-06 09:11:00,45.0,28.0,29.87,WNW,299,18.0,37.0,52,0.00,,,0.06,101.000000,,2013-03-06 14:11:00,
2013-03-06 09:32:00,48.0,29.0,29.88,WNW,292,16.0,36.0,48,0.00,,,0.06,354.000000,,2013-03-06 14:32:00,
2013-03-06 09:42:00,48.0,29.0,29.88,WNW,292,16.0,36.0,48,0.00,,,0.06,354.000000,,2013-03-06 14:42:00,
2013-03-06 09:53:00,48.0,29.0,29.88,WNW,292,16.0,36.0,48,0.00,,,0.06,354.000000,,2013-03-06 14:53:00,
2013-03-06 10:02:00,48.0,29.0,29.88,WNW,292,16.0,36.0,48,0.00,,,0.06,354.000000,,2013-03-06 15:02:00,
2013-03-06 10:12:00,48.0,29.0,29.88,WNW,292,16.0,36.0,48,0.00,,,0.06,354.000000,,2013-03-06 15:12:00,
2013-03-06 10:42:00,48.0,25.0,29.88,WNW,298,19.0,43.0,41,0.00,,,0.06,630.000000,,2013-03-06 15:42:00,
2013-03-06 10:52:00,48.0,25.0,29.88,WNW,298,19.0,43.0,41,0.00,,,0.06,630.000000,,2013-03-06 15:52:00,
2013-03-06 11:02:00,48.0,25.0,29.88,WNW,298,19.0,43.0,41,0.00,,,0.06,630.000000,,2013-03-06 16:02:00,
2013-03-06 11:12:00,48.0,25.0,29.88,WNW,298,19.0,43.0,41,0.00,,,0.06,630.000000,,2013-03-06 16:12:00,
2013-03-06 11:42:00,48.0,24.0,29.90,WNW,296,19.0,41.0,39,0.00,,,0.06,668.000000,,2013-03-06 16:42:00,
2013-03-06 11:52:00,48.0,24.0,29.90,WNW,296,19.0,41.0,39,0.00,,,0.06,668.000000,,2013-03-06 16:52:00,
2013-03-06 12:01:00,48.0,24.0,29.90,WNW,296,19.0,41.0,39,0.00,,,0.06,668.000000,,2013-03-06 17:01:00,
2013-03-06 12:11:00,48.0,24.0,29.90,WNW,296,19.0,41.0,39,0.00,,,0.06,668.000000,,2013-03-06 17:11:00,
2013-03-06 12:32:00,51.0,27.0,29.91,WNW,296,17.0,38.0,39,0.00,,,0.06,646.000000,,2013-03-06 17:32:00,
2013-03-06 12:42:00,51.0,27.0,29.91,WNW,296,17.0,38.0,39,0.00,,,0.06,646.000000,,2013-03-06 17:42:00,
2013-03-06 12:53:00,51.0,27.0,29.91,WNW,296,17.0,38.0,39,0.00,,,0.06,646.000000,,2013-03-06 17:53:00,
2013-03-06 13:02:00,51.0,27.0,29.91,WNW,296,17.0,38.0,39,0.00,,,0.06,646.000000,,2013-03-06 18:02:00,
2013-03-06 13:32:00,49.0,24.0,29.88,WNW,295,18.0,44.0,37,0.00,,,0.06,748.000000,,2013-03-06 18:32:00,
2013-03-06 13:42:00,49.0,24.0,29.88,WNW,295,18.0,44.0,37,0.00,,,0.06,748.000000,,2013-03-06 18:42:00,
2013-03-06 13:53:00,49.0,24.0,29.88,WNW,295,18.0,44.0,37,0.00,,,0.06,748.000000,,2013-03-06 18:53:00,
2013-03-06 14:02:00,49.0,24.0,29.88,WNW,295,18.0,44.0,37,0.00,,,0.06,748.000000,,2013-03-06 19:02:00,
2013-03-06 14:11:00,49.0,24.0,29.88,WNW,295,18.0,44.0,37,0.00,,,0.06,748.000000,,2013-03-06 19:11:00,
2013-03-06 14:43:00,50.0,25.0,29.89,NW,314,21.0,49.0,37,0.00,,,0.06,783.000000,,2013-03-06 19:43:00,
2013-03-06 14:53:00,50.0,25.0,29.89,NW,314,21.0,49.0,37,0.00,,,0.06,783.000000,,2013-03-06 19:53:00,
2013-03-06 15:02:00,50.0,25.0,29.89,NW,314,21.0,49.0,37,0.00,,,0.06,783.000000,,2013-03-06 20:02:00,
2013-03-06 15:12:00,50.0,25.0,29.89,NW,314,21.0,49.0,37,0.00,,,0.06,783.000000,,2013-03-06 20:12:00,
2013-03-06 15:33:00,51.0,24.0,29.90,WNW,302,27.0,46.0,35,0.00,,,0.06,518.000000,,2013-03-06 20:33:00,
2013-03-06 15:43:00,51.0,24.0,29.90,WNW,302,27.0,46.0,35,0.00,,,0.06,518.000000,,2013-03-06 20:43:00,
2013-03-06 15:53:00,51.0,24.0,29.90,WNW,302,27.0,46.0,35,0.00,,,0.06,518.000000,,2013-03-06 20:53:00,
2013-03-06 16:02:00,51.0,24.0,29.90,WNW,302,27.0,46.0,35,0.00,,,0.06,518.000000,,2013-03-06 21:02:00,
2013-03-06 16:12:00,51.0,24.0,29.90,WNW,302,27.0,46.0,35,0.00,,,0.06,518.000000,,2013-03-06 21:12:00,
2013-03-06 16:42:00,48.0,25.0,29.94,NW,313,25.0,42.0,40,0.00,,,0.06,337.000000,,2013-03-06 21:42:00,
2013-03-06 16:52:00,48.0,25.0,29.94,NW,313,25.0,42.0,40,0.00,,,0.06,337.000000,,2013-03-06 21:52:00,
2013-03-06 17:02:00,48.0,25.0,29.94,NW,313,25.0,42.0,40,0.00,,,0.06,337.000000,,2013-03-06 22:02:00,
2013-03-06 17:11:00,48.0,25.0,29.94,NW,313,25.0,42.0,40,0.00,,,0.06,337.000000,,2013-03-06 22:11:00,
2013-03-06 17:32:00,49.0,27.0,29.97,NW,319,20.0,42.0,43,0.00,,,0.06,105.000000,,2013-03-06 22:32:00,
2013-03-06 17:42:00,49.0,27.0,29.97,NW,319,20.0,42.0,43,0.00,,,0.06,105.000000,,2013-03-06 22:42:00,
2013-03-06 17:52:00,49.0,27.0,29.97,NW,319,20.0,42.0,43,0.00,,,0.06,105.000000,,2013-03-06 22:52:00,
2013-03-06 18:02:00,49.0,27.0,29.97,NW,319,20.0,42.0,43,0.00,,,0.06,105.000000,,2013-03-06 23:02:00,
2013-03-06 18:11:00,49.0,27.0,29.97,NW,319,20.0,42.0,43,0.00,,,0.06,105.000000,,2013-03-06 23:11:00,
2013-03-06 18:32:00,48.0,30.0,30.04,NNW,338,23.0,48.0,49,0.00,,,0.06,14.000000,,2013-03-06 23:32:00,
2013-03-06 18:42:00,48.0,30.0,30.04,NNW,338,23.0,48.0,49,0.00,,,0.06,14.000000,,2013-03-06 23:42:00,
2013-03-06 18:52:00,48.0,30.0,30.04,NNW,338,23.0,48.0,49,0.00,,,0.06,14.000000,,2013-03-06 23:52:00,
2013-03-06 19:02:00,48.0,30.0,30.04,NNW,338,23.0,48.0,49,0.00,,,0.06,14.000000,,2013-03-07 00:02:00,
2013-03-06 19:11:00,48.0,30.0,30.04,NNW,338,23.0,48.0,49,0.00,,,0.06,14.000000,,2013-03-07 00:11:00,
2013-03-06 19:32:00,47.0,33.0,30.09,NNW,344,20.0,37.0,58,0.00,,,0.06,0.000000,,2013-03-07 00:32:00,
2013-03-06 19:42:00,47.0,33.0,30.09,NNW,344,20.0,37.0,58,0.00,,,0.06,0.000000,,2013-03-07 00:42:00,
2013-03-06 19:52:00,47.0,33.0,30.09,NNW,344,20.0,37.0,58,0.00,,,0.06,0.000000,,2013-03-07 00:52:00,
2013-03-06 20:02:00,47.0,33.0,30.09,NNW,344,20.0,37.0,58,0.00,,,0.06,0.000000,,2013-03-07 01:02:00,
2013-03-06 20:11:00,47.0,33.0,30.09,NNW,344,20.0,37.0,58,0.00,,,0.06,0.000000,,2013-03-07 01:11:00,
2013-03-06 20:42:00,45.0,33.0,30.12,NNW,345,16.0,41.0,63,0.00,,,0.06,0.000000,,2013-03-07 01:42:00,
2013-03-06 20:52:00,45.0,33.0,30.12,NNW,345,16.0,41.0,63,0.00,,,0.06,0.000000,,2013-03-07 01:52:00,
2013-03-06 21:01:00,45.0,33.0,30.12,NNW,345,16.0,41.0,63,0.00,,,0.06,0.000000,,2013-03-07 02:01:00,
2013-03-06 21:11:00,45.0,33.0,30.12,NNW,345,16.0,41.0,63,0.00,,,0.06,0.000000,,2013-03-07 02:11:00,
2013-03-06 21:32:00,45.0,34.0,30.16,NNW,343,19.0,39.0,66,0.00,,,0.06,0.000000,,2013-03-07 02:32:00,
2013-03-06 21:42:00,45.0,34.0,30.16,NNW,343,19.0,39.0,66,0.00,,,0.06,0.000000,,2013-03-07 02:42:00,
2013-03-06 21:52:00,45.0,34.0,30.16,NNW,343,19.0,39.0,66,0.00,,,0.06,0.000000,,2013-03-07 02:52:00,
2013-03-06 22:02:00,45.0,34.0,30.16,NNW,343,19.0,39.0,66,0.00,,,0.06,0.000000,,2013-03-07 03:02:00,
2013-03-06 22:12:00,45.0,34.0,30.16,NNW,343,19.0,39.0,66,0.00,,,0.06,0.000000,,2013-03-07 03:12:00,
2013-03-06 22:32:00,45.0,34.0,30.17,NNW,343,17.0,33.0,65,0.00,,,0.06,0.000000,,2013-03-07 03:32:00,
2013-03-06 22:42:00,45.0,34.0,30.17,NNW,343,17.0,33.0,65,0.00,,,0.06,0.000000,,2013-03-07 03:42:00,
2013-03-06 22:52:00,45.0,34.0,30.17,NNW,343,17.0,33.0,65,0.00,,,0.06,0.000000,,2013-03-07 03:52:00,
2013-03-06 23:02:00,45.0,34.0,30.17,NNW,343,17.0,33.0,65,0.00,,,0.06,0.000000,,2013-03-07 04:02:00,
2013-03-06 23:12:00,45.0,34.0,30.17,NNW,343,17.0,33.0,65,0.00,,,0.06,0.000000,,2013-03-07 04:12:00,
2013-03-06 23:32:00,44.0,32.0,30.19,NNW,343,15.0,29.0,63,0.00,,,0.04,0.000000,,2013-03-07 04:32:00,
2013-03-06 23:42:00,44.0,32.0,30.19,NNW,343,15.0,29.0,63,0.00,,,0.04,0.000000,,2013-03-07 04:42:00,
2013-03-06 23:52:00,44.0,32.0,30.19,NNW,343,15.0,29.0,63,0.00,,,0.04,0.000000,,2013-03-07 04:52:00,